Terminal Aerodrome Forecast
Issued by NWS Bismarck, ND

Home | Current Version | Previous Version | Graphics & Text | Print | Product List | Glossary On
Versions: 1 2 3 4 5 6 7 8 9 10 11 12 13 14 15 16 17 18 19 20 21
000
FTUS43 KBIS 221033 AAB
TAFBIS
TAF AMD
KBIS 221033Z 2211/2306 03015G21KT P6SM SCT050 SCT100
     FM221300 03014KT P6SM VCTS BKN080CB BKN130
     FM221500 04019G26KT P6SM VCTS SCT025 BKN040CB OVC130
     FM221800 03015G23KT P6SM BKN025 OVC130
     FM222100 36014KT P6SM OVC015
     FM230300 35008KT P6SM OVC015=

USA.gov is the U.S. government's official web portal to all federal, state and local government web resources and services.